sensor_id;sensor_type;location;lat;lon;timestamp;P1;durP1;ratioP1;P2;durP2;ratioP2
19255;SDS011;9762;52.490;13.410;2022-11-20T00:01:46;10.90;;;9.07;;
19255;SDS011;9762;52.490;13.410;2022-11-20T00:04:12;9.70;;;8.73;;
19255;SDS011;9762;52.490;13.410;2022-11-20T00:06:37;12.77;;;8.77;;
19255;SDS011;9762;52.490;13.410;2022-11-20T00:09:03;10.20;;;8.90;;
19255;SDS011;9762;52.490;13.410;2022-11-20T00:11:30;11.43;;;9.17;;
19255;SDS011;9762;52.490;13.410;2022-11-20T00:13:57;10.77;;;9.17;;
19255;SDS011;9762;52.490;13.410;2022-11-20T00:16:25;11.10;;;9.23;;
19255;SDS011;9762;52.490;13.410;2022-11-20T00:18:52;9.27;;;8.27;;
19255;SDS011;9762;52.490;13.410;2022-11-20T00:21:22;9.97;;;8.97;;
19255;SDS011;9762;52.490;13.410;2022-11-20T00:23:51;9.93;;;9.00;;
19255;SDS011;9762;52.490;13.410;2022-11-20T00:26:18;10.37;;;9.27;;
19255;SDS011;9762;52.490;13.410;2022-11-20T00:28:49;10.13;;;9.23;;
19255;SDS011;9762;52.490;13.410;2022-11-20T00:31:16;10.03;;;9.03;;
19255;SDS011;9762;52.490;13.410;2022-11-20T00:33:42;11.60;;;9.20;;
19255;SDS011;9762;52.490;13.410;2022-11-20T00:36:09;12.27;;;9.87;;
19255;SDS011;9762;52.490;13.410;2022-11-20T00:38:39;11.43;;;9.67;;
19255;SDS011;9762;52.490;13.410;2022-11-20T00:41:07;11.83;;;9.13;;
19255;SDS011;9762;52.490;13.410;2022-11-20T00:43:34;10.83;;;8.80;;
19255;SDS011;9762;52.490;13.410;2022-11-20T00:46:00;11.10;;;9.83;;
19255;SDS011;9762;52.490;13.410;2022-11-20T00:48:27;10.10;;;9.10;;
19255;SDS011;9762;52.490;13.410;2022-11-20T00:50:53;9.57;;;8.67;;
19255;SDS011;9762;52.490;13.410;2022-11-20T00:53:19;9.17;;;8.37;;
19255;SDS011;9762;52.490;13.410;2022-11-20T00:55:52;9.23;;;8.33;;
19255;SDS011;9762;52.490;13.410;2022-11-20T00:58:22;10.70;;;9.60;;
19255;SDS011;9762;52.490;13.410;2022-11-20T01:00:48;10.37;;;9.23;;
19255;SDS011;9762;52.490;13.410;2022-11-20T01:03:15;9.97;;;9.07;;
19255;SDS011;9762;52.490;13.410;2022-11-20T01:05:41;8.93;;;8.13;;
19255;SDS011;9762;52.490;13.410;2022-11-20T01:08:07;8.60;;;7.70;;
19255;SDS011;9762;52.490;13.410;2022-11-20T01:10:33;9.60;;;8.57;;
19255;SDS011;9762;52.490;13.410;2022-11-20T01:12:59;11.73;;;9.23;;
19255;SDS011;9762;52.490;13.410;2022-11-20T01:15:43;12.70;;;8.83;;
19255;SDS011;9762;52.490;13.410;2022-11-20T01:18:08;11.97;;;9.30;;
19255;SDS011;9762;52.490;13.410;2022-11-20T01:20:34;10.63;;;9.50;;
19255;SDS011;9762;52.490;13.410;2022-11-20T01:23:01;10.07;;;9.07;;
19255;SDS011;9762;52.490;13.410;2022-11-20T01:25:27;11.63;;;9.57;;
19255;SDS011;9762;52.490;13.410;2022-11-20T01:27:53;9.87;;;8.80;;
19255;SDS011;9762;52.490;13.410;2022-11-20T01:30:18;11.63;;;9.30;;
19255;SDS011;9762;52.490;13.410;2022-11-20T01:32:44;9.93;;;8.93;;
19255;SDS011;9762;52.490;13.410;2022-11-20T01:35:10;10.10;;;9.20;;
19255;SDS011;9762;52.490;13.410;2022-11-20T01:37:35;10.13;;;9.23;;
19255;SDS011;9762;52.490;13.410;2022-11-20T01:40:01;13.73;;;9.57;;
19255;SDS011;9762;52.490;13.410;2022-11-20T01:42:27;10.83;;;9.27;;
19255;SDS011;9762;52.490;13.410;2022-11-20T01:48:14;10.40;;;9.40;;
19255;SDS011;9762;52.490;13.410;2022-11-20T01:50:40;11.77;;;10.43;;
19255;SDS011;9762;52.490;13.410;2022-11-20T01:53:08;10.20;;;9.13;;
19255;SDS011;9762;52.490;13.410;2022-11-20T01:55:39;9.73;;;8.73;;
19255;SDS011;9762;52.490;13.410;2022-11-20T01:58:09;11.53;;;9.60;;
19255;SDS011;9762;52.490;13.410;2022-11-20T02:00:35;11.60;;;10.10;;
19255;SDS011;9762;52.490;13.410;2022-11-20T02:03:02;10.83;;;9.50;;
19255;SDS011;9762;52.490;13.410;2022-11-20T02:05:51;10.87;;;9.77;;
19255;SDS011;9762;52.490;13.410;2022-11-20T02:08:33;10.23;;;9.23;;
19255;SDS011;9762;52.490;13.410;2022-11-20T02:11:00;10.63;;;9.47;;
19255;SDS011;9762;52.490;13.410;2022-11-20T02:13:26;10.93;;;9.20;;
19255;SDS011;9762;52.490;13.410;2022-11-20T02:16:11;9.47;;;8.57;;
19255;SDS011;9762;52.490;13.410;2022-11-20T02:18:40;10.37;;;9.27;;
19255;SDS011;9762;52.490;13.410;2022-11-20T02:21:08;10.40;;;9.30;;
19255;SDS011;9762;52.490;13.410;2022-11-20T02:24:19;12.03;;;8.43;;
19255;SDS011;9762;52.490;13.410;2022-11-20T02:29:40;12.03;;;9.40;;
19255;SDS011;9762;52.490;13.410;2022-11-20T02:32:16;11.40;;;9.40;;
19255;SDS011;9762;52.490;13.410;2022-11-20T02:34:45;10.80;;;9.63;;
19255;SDS011;9762;52.490;13.410;2022-11-20T02:37:11;13.70;;;9.60;;
19255;SDS011;9762;52.490;13.410;2022-11-20T02:39:37;11.40;;;10.30;;
19255;SDS011;9762;52.490;13.410;2022-11-20T02:42:03;10.57;;;9.47;;
19255;SDS011;9762;52.490;13.410;2022-11-20T02:44:29;10.63;;;9.73;;
19255;SDS011;9762;52.490;13.410;2022-11-20T02:46:56;11.47;;;10.27;;
19255;SDS011;9762;52.490;13.410;2022-11-20T02:49:23;12.87;;;10.07;;
19255;SDS011;9762;52.490;13.410;2022-11-20T02:51:49;10.27;;;9.27;;
19255;SDS011;9762;52.490;13.410;2022-11-20T02:54:15;10.80;;;9.47;;
19255;SDS011;9762;52.490;13.410;2022-11-20T02:56:40;9.87;;;8.97;;
19255;SDS011;9762;52.490;13.410;2022-11-20T02:59:06;11.33;;;10.23;;
19255;SDS011;9762;52.490;13.410;2022-11-20T03:01:32;10.20;;;9.13;;
19255;SDS011;9762;52.490;13.410;2022-11-20T03:03:57;12.13;;;10.60;;
19255;SDS011;9762;52.490;13.410;2022-11-20T03:06:23;11.57;;;10.33;;
19255;SDS011;9762;52.490;13.410;2022-11-20T03:08:49;15.10;;;10.50;;
19255;SDS011;9762;52.490;13.410;2022-11-20T03:11:14;13.27;;;9.70;;
19255;SDS011;9762;52.490;13.410;2022-11-20T03:13:41;11.23;;;10.13;;
19255;SDS011;9762;52.490;13.410;2022-11-20T03:16:08;14.23;;;10.47;;
19255;SDS011;9762;52.490;13.410;2022-11-20T03:18:36;12.40;;;9.77;;
19255;SDS011;9762;52.490;13.410;2022-11-20T03:21:02;11.60;;;10.37;;
19255;SDS011;9762;52.490;13.410;2022-11-20T03:23:29;11.67;;;10.33;;
19255;SDS011;9762;52.490;13.410;2022-11-20T03:25:56;11.03;;;10.00;;
19255;SDS011;9762;52.490;13.410;2022-11-20T03:28:31;12.00;;;10.77;;
19255;SDS011;9762;52.490;13.410;2022-11-20T03:30:57;11.93;;;10.53;;
19255;SDS011;9762;52.490;13.410;2022-11-20T03:33:22;12.87;;;10.80;;
19255;SDS011;9762;52.490;13.410;2022-11-20T03:35:48;12.97;;;10.43;;
19255;SDS011;9762;52.490;13.410;2022-11-20T03:38:13;12.53;;;10.63;;
19255;SDS011;9762;52.490;13.410;2022-11-20T03:40:39;11.30;;;9.97;;
19255;SDS011;9762;52.490;13.410;2022-11-20T03:43:04;11.67;;;10.47;;
19255;SDS011;9762;52.490;13.410;2022-11-20T03:45:30;10.73;;;9.23;;
19255;SDS011;9762;52.490;13.410;2022-11-20T03:47:56;10.77;;;9.67;;
19255;SDS011;9762;52.490;13.410;2022-11-20T03:50:21;11.90;;;9.93;;
19255;SDS011;9762;52.490;13.410;2022-11-20T03:52:47;12.63;;;9.83;;
19255;SDS011;9762;52.490;13.410;2022-11-20T03:55:12;11.27;;;10.10;;
19255;SDS011;9762;52.490;13.410;2022-11-20T03:57:38;11.80;;;10.57;;
19255;SDS011;9762;52.490;13.410;2022-11-20T04:00:04;11.83;;;10.63;;
19255;SDS011;9762;52.490;13.410;2022-11-20T04:02:31;12.10;;;10.23;;
19255;SDS011;9762;52.490;13.410;2022-11-20T04:04:56;12.77;;;10.27;;
19255;SDS011;9762;52.490;13.410;2022-11-20T04:07:22;11.47;;;10.27;;
19255;SDS011;9762;52.490;13.410;2022-11-20T04:09:47;13.67;;;11.33;;
19255;SDS011;9762;52.490;13.410;2022-11-20T04:12:13;12.13;;;10.57;;
19255;SDS011;9762;52.490;13.410;2022-11-20T04:14:39;12.73;;;11.07;;
19255;SDS011;9762;52.490;13.410;2022-11-20T04:17:04;15.30;;;10.70;;
19255;SDS011;9762;52.490;13.410;2022-11-20T04:19:30;11.97;;;10.77;;
19255;SDS011;9762;52.490;13.410;2022-11-20T04:21:55;11.20;;;10.10;;
19255;SDS011;9762;52.490;13.410;2022-11-20T04:24:21;11.17;;;10.00;;
19255;SDS011;9762;52.490;13.410;2022-11-20T04:26:47;10.83;;;9.57;;
19255;SDS011;9762;52.490;13.410;2022-11-20T04:29:12;13.33;;;11.20;;
19255;SDS011;9762;52.490;13.410;2022-11-20T04:31:38;12.30;;;10.80;;
19255;SDS011;9762;52.490;13.410;2022-11-20T04:34:04;11.83;;;10.63;;
19255;SDS011;9762;52.490;13.410;2022-11-20T04:36:31;13.60;;;10.87;;
19255;SDS011;9762;52.490;13.410;2022-11-20T04:38:58;11.97;;;10.73;;
19255;SDS011;9762;52.490;13.410;2022-11-20T04:41:27;13.13;;;9.83;;
19255;SDS011;9762;52.490;13.410;2022-11-20T04:43:55;11.20;;;10.17;;
19255;SDS011;9762;52.490;13.410;2022-11-20T04:46:24;12.03;;;10.73;;
19255;SDS011;9762;52.490;13.410;2022-11-20T04:48:51;12.43;;;11.17;;
19255;SDS011;9762;52.490;13.410;2022-11-20T04:51:16;12.87;;;11.40;;
19255;SDS011;9762;52.490;13.410;2022-11-20T04:53:42;11.77;;;10.57;;
19255;SDS011;9762;52.490;13.410;2022-11-20T04:56:08;12.17;;;10.87;;
19255;SDS011;9762;52.490;13.410;2022-11-20T04:58:35;12.77;;;11.43;;
19255;SDS011;9762;52.490;13.410;2022-11-20T05:01:02;12.23;;;10.93;;
19255;SDS011;9762;52.490;13.410;2022-11-20T05:03:32;12.83;;;11.13;;
19255;SDS011;9762;52.490;13.410;2022-11-20T05:06:02;12.90;;;11.60;;
19255;SDS011;9762;52.490;13.410;2022-11-20T05:08:29;11.87;;;10.73;;
19255;SDS011;9762;52.490;13.410;2022-11-20T05:13:28;11.90;;;10.73;;
19255;SDS011;9762;52.490;13.410;2022-11-20T05:15:54;13.27;;;11.17;;
19255;SDS011;9762;52.490;13.410;2022-11-20T05:18:19;12.30;;;11.10;;
19255;SDS011;9762;52.490;13.410;2022-11-20T05:20:45;12.77;;;10.97;;
19255;SDS011;9762;52.490;13.410;2022-11-20T05:23:11;14.20;;;11.47;;
19255;SDS011;9762;52.490;13.410;2022-11-20T05:25:36;12.73;;;11.40;;
19255;SDS011;9762;52.490;13.410;2022-11-20T05:28:02;12.73;;;11.30;;
19255;SDS011;9762;52.490;13.410;2022-11-20T05:30:27;13.97;;;11.17;;
19255;SDS011;9762;52.490;13.410;2022-11-20T05:32:54;12.50;;;10.63;;
19255;SDS011;9762;52.490;13.410;2022-11-20T05:35:20;13.03;;;11.07;;
19255;SDS011;9762;52.490;13.410;2022-11-20T05:37:46;13.03;;;10.57;;
19255;SDS011;9762;52.490;13.410;2022-11-20T05:40:11;12.63;;;11.20;;
19255;SDS011;9762;52.490;13.410;2022-11-20T05:42:37;12.33;;;11.10;;
19255;SDS011;9762;52.490;13.410;2022-11-20T05:45:03;11.87;;;10.23;;
19255;SDS011;9762;52.490;13.410;2022-11-20T05:47:33;12.23;;;11.07;;
19255;SDS011;9762;52.490;13.410;2022-11-20T05:50:00;13.33;;;11.03;;
19255;SDS011;9762;52.490;13.410;2022-11-20T05:52:29;13.90;;;11.77;;
19255;SDS011;9762;52.490;13.410;2022-11-20T05:54:55;14.00;;;11.63;;
19255;SDS011;9762;52.490;13.410;2022-11-20T05:57:21;12.83;;;11.50;;
19255;SDS011;9762;52.490;13.410;2022-11-20T05:59:46;12.87;;;10.93;;
19255;SDS011;9762;52.490;13.410;2022-11-20T06:02:12;12.37;;;10.87;;
19255;SDS011;9762;52.490;13.410;2022-11-20T06:04:37;13.73;;;11.37;;
19255;SDS011;9762;52.490;13.410;2022-11-20T06:07:04;12.23;;;10.93;;
19255;SDS011;9762;52.490;13.410;2022-11-20T06:09:30;13.33;;;11.63;;
19255;SDS011;9762;52.490;13.410;2022-11-20T06:11:56;12.47;;;11.17;;
19255;SDS011;9762;52.490;13.410;2022-11-20T06:14:21;15.00;;;12.03;;
19255;SDS011;9762;52.490;13.410;2022-11-20T06:16:47;14.20;;;11.87;;
19255;SDS011;9762;52.490;13.410;2022-11-20T06:19:13;13.77;;;11.40;;
19255;SDS011;9762;52.490;13.410;2022-11-20T06:21:38;13.17;;;11.40;;
19255;SDS011;9762;52.490;13.410;2022-11-20T06:24:04;11.27;;;10.17;;
19255;SDS011;9762;52.490;13.410;2022-11-20T06:26:30;12.50;;;11.20;;
19255;SDS011;9762;52.490;13.410;2022-11-20T06:28:55;10.53;;;9.63;;
19255;SDS011;9762;52.490;13.410;2022-11-20T06:31:22;13.93;;;12.43;;
19255;SDS011;9762;52.490;13.410;2022-11-20T06:33:49;18.07;;;14.07;;
19255;SDS011;9762;52.490;13.410;2022-11-20T06:36:16;14.30;;;11.77;;
19255;SDS011;9762;52.490;13.410;2022-11-20T06:38:43;12.43;;;11.17;;
19255;SDS011;9762;52.490;13.410;2022-11-20T06:41:16;12.97;;;11.33;;
19255;SDS011;9762;52.490;13.410;2022-11-20T06:43:44;13.27;;;11.17;;
19255;SDS011;9762;52.490;13.410;2022-11-20T06:46:10;18.93;;;15.00;;
19255;SDS011;9762;52.490;13.410;2022-11-20T06:48:37;14.63;;;12.27;;
19255;SDS011;9762;52.490;13.410;2022-11-20T06:51:04;13.33;;;11.90;;
19255;SDS011;9762;52.490;13.410;2022-11-20T06:53:30;12.97;;;11.53;;
19255;SDS011;9762;52.490;13.410;2022-11-20T06:55:56;13.00;;;11.40;;
19255;SDS011;9762;52.490;13.410;2022-11-20T06:58:23;12.53;;;11.10;;
19255;SDS011;9762;52.490;13.410;2022-11-20T07:00:50;14.83;;;12.10;;
19255;SDS011;9762;52.490;13.410;2022-11-20T07:03:16;13.70;;;11.43;;
19255;SDS011;9762;52.490;13.410;2022-11-20T07:05:42;14.17;;;11.47;;
19255;SDS011;9762;52.490;13.410;2022-11-20T07:08:07;12.87;;;11.40;;
19255;SDS011;9762;52.490;13.410;2022-11-20T07:10:33;14.33;;;11.67;;
19255;SDS011;9762;52.490;13.410;2022-11-20T07:12:59;21.40;;;16.27;;
19255;SDS011;9762;52.490;13.410;2022-11-20T07:15:25;18.67;;;13.70;;
19255;SDS011;9762;52.490;13.410;2022-11-20T07:17:51;16.20;;;12.83;;
19255;SDS011;9762;52.490;13.410;2022-11-20T07:20:17;13.17;;;11.73;;
19255;SDS011;9762;52.490;13.410;2022-11-20T07:22:42;14.20;;;11.70;;
19255;SDS011;9762;52.490;13.410;2022-11-20T07:25:08;13.60;;;11.57;;
19255;SDS011;9762;52.490;13.410;2022-11-20T07:27:34;13.43;;;11.30;;
19255;SDS011;9762;52.490;13.410;2022-11-20T07:30:01;14.50;;;11.77;;
19255;SDS011;9762;52.490;13.410;2022-11-20T07:32:27;13.90;;;11.73;;
19255;SDS011;9762;52.490;13.410;2022-11-20T07:34:52;20.27;;;12.47;;
19255;SDS011;9762;52.490;13.410;2022-11-20T07:37:18;13.87;;;12.37;;
19255;SDS011;9762;52.490;13.410;2022-11-20T07:39:44;17.17;;;12.93;;
19255;SDS011;9762;52.490;13.410;2022-11-20T07:42:09;14.73;;;11.40;;
19255;SDS011;9762;52.490;13.410;2022-11-20T07:44:37;13.37;;;11.83;;
19255;SDS011;9762;52.490;13.410;2022-11-20T07:47:03;15.10;;;11.30;;
19255;SDS011;9762;52.490;13.410;2022-11-20T07:49:29;12.30;;;10.97;;
19255;SDS011;9762;52.490;13.410;2022-11-20T07:51:54;11.73;;;10.63;;
19255;SDS011;9762;52.490;13.410;2022-11-20T07:54:20;13.20;;;11.53;;
19255;SDS011;9762;52.490;13.410;2022-11-20T07:56:47;17.20;;;13.63;;
19255;SDS011;9762;52.490;13.410;2022-11-20T07:59:13;15.97;;;13.80;;
19255;SDS011;9762;52.490;13.410;2022-11-20T08:01:39;14.60;;;12.17;;
19255;SDS011;9762;52.490;13.410;2022-11-20T08:04:05;14.40;;;12.00;;
19255;SDS011;9762;52.490;13.410;2022-11-20T08:06:31;15.37;;;12.23;;
19255;SDS011;9762;52.490;13.410;2022-11-20T08:08:56;16.17;;;12.10;;
19255;SDS011;9762;52.490;13.410;2022-11-20T08:11:22;16.37;;;12.07;;
19255;SDS011;9762;52.490;13.410;2022-11-20T08:14:06;15.53;;;12.17;;
19255;SDS011;9762;52.490;13.410;2022-11-20T08:16:38;13.97;;;12.47;;
19255;SDS011;9762;52.490;13.410;2022-11-20T08:19:04;16.73;;;12.57;;
19255;SDS011;9762;52.490;13.410;2022-11-20T08:21:30;14.57;;;12.27;;
19255;SDS011;9762;52.490;13.410;2022-11-20T08:23:57;18.37;;;13.63;;
19255;SDS011;9762;52.490;13.410;2022-11-20T08:26:23;17.27;;;12.47;;
19255;SDS011;9762;52.490;13.410;2022-11-20T08:28:49;13.53;;;12.07;;
19255;SDS011;9762;52.490;13.410;2022-11-20T08:31:17;13.20;;;11.80;;
19255;SDS011;9762;52.490;13.410;2022-11-20T08:33:43;13.23;;;11.87;;
19255;SDS011;9762;52.490;13.410;2022-11-20T08:36:08;16.83;;;11.53;;
19255;SDS011;9762;52.490;13.410;2022-11-20T08:38:34;15.23;;;12.30;;
19255;SDS011;9762;52.490;13.410;2022-11-20T08:41:00;16.67;;;12.13;;
19255;SDS011;9762;52.490;13.410;2022-11-20T08:43:46;14.40;;;12.00;;
19255;SDS011;9762;52.490;13.410;2022-11-20T08:46:12;19.67;;;15.90;;
19255;SDS011;9762;52.490;13.410;2022-11-20T08:48:38;15.27;;;12.83;;
19255;SDS011;9762;52.490;13.410;2022-11-20T08:51:04;15.47;;;13.13;;
19255;SDS011;9762;52.490;13.410;2022-11-20T08:53:30;15.13;;;12.73;;
19255;SDS011;9762;52.490;13.410;2022-11-20T08:55:56;14.87;;;12.40;;
19255;SDS011;9762;52.490;13.410;2022-11-20T08:58:22;17.53;;;13.37;;
19255;SDS011;9762;52.490;13.410;2022-11-20T09:00:48;17.33;;;11.93;;
19255;SDS011;9762;52.490;13.410;2022-11-20T09:03:13;15.13;;;13.00;;
19255;SDS011;9762;52.490;13.410;2022-11-20T09:05:39;14.03;;;11.87;;
19255;SDS011;9762;52.490;13.410;2022-11-20T09:08:05;14.93;;;12.30;;
19255;SDS011;9762;52.490;13.410;2022-11-20T09:10:30;16.90;;;12.87;;
19255;SDS011;9762;52.490;13.410;2022-11-20T09:12:57;15.80;;;12.20;;
19255;SDS011;9762;52.490;13.410;2022-11-20T09:15:23;18.23;;;14.07;;
19255;SDS011;9762;52.490;13.410;2022-11-20T09:17:53;18.43;;;13.27;;
19255;SDS011;9762;52.490;13.410;2022-11-20T09:20:20;23.60;;;15.33;;
19255;SDS011;9762;52.490;13.410;2022-11-20T09:22:45;26.07;;;16.20;;
19255;SDS011;9762;52.490;13.410;2022-11-20T09:25:11;16.93;;;12.23;;
19255;SDS011;9762;52.490;13.410;2022-11-20T09:27:37;14.77;;;13.20;;
19255;SDS011;9762;52.490;13.410;2022-11-20T09:30:02;16.57;;;13.63;;
19255;SDS011;9762;52.490;13.410;2022-11-20T09:32:28;22.20;;;14.00;;
19255;SDS011;9762;52.490;13.410;2022-11-20T09:34:54;14.57;;;11.47;;
19255;SDS011;9762;52.490;13.410;2022-11-20T09:37:20;15.20;;;11.67;;
19255;SDS011;9762;52.490;13.410;2022-11-20T09:39:46;15.77;;;12.03;;
19255;SDS011;9762;52.490;13.410;2022-11-20T09:42:17;13.30;;;11.57;;
19255;SDS011;9762;52.490;13.410;2022-11-20T09:53:37;14.60;;;11.87;;
19255;SDS011;9762;52.490;13.410;2022-11-20T09:56:31;14.20;;;11.97;;
19255;SDS011;9762;52.490;13.410;2022-11-20T09:59:03;13.67;;;11.30;;
19255;SDS011;9762;52.490;13.410;2022-11-20T10:01:32;13.53;;;11.67;;
19255;SDS011;9762;52.490;13.410;2022-11-20T10:04:02;15.97;;;12.53;;
19255;SDS011;9762;52.490;13.410;2022-11-20T10:06:49;13.67;;;12.27;;
19255;SDS011;9762;52.490;13.410;2022-11-20T10:09:21;13.97;;;12.13;;
19255;SDS011;9762;52.490;13.410;2022-11-20T10:12:09;13.77;;;12.20;;
19255;SDS011;9762;52.490;13.410;2022-11-20T10:20:58;16.97;;;14.40;;
19255;SDS011;9762;52.490;13.410;2022-11-20T10:23:59;17.47;;;15.17;;
19255;SDS011;9762;52.490;13.410;2022-11-20T10:29:33;14.93;;;13.43;;
19255;SDS011;9762;52.490;13.410;2022-11-20T10:32:06;13.90;;;11.60;;
19255;SDS011;9762;52.490;13.410;2022-11-20T10:34:57;14.80;;;11.77;;
19255;SDS011;9762;52.490;13.410;2022-11-20T10:37:27;14.60;;;12.87;;
19255;SDS011;9762;52.490;13.410;2022-11-20T10:40:00;21.30;;;14.07;;
19255;SDS011;9762;52.490;13.410;2022-11-20T10:45:43;15.73;;;13.97;;
19255;SDS011;9762;52.490;13.410;2022-11-20T10:48:32;17.13;;;13.60;;
19255;SDS011;9762;52.490;13.410;2022-11-20T10:54:11;18.73;;;14.93;;
19255;SDS011;9762;52.490;13.410;2022-11-20T10:56:51;16.30;;;13.97;;
19255;SDS011;9762;52.490;13.410;2022-11-20T11:02:19;20.10;;;13.63;;
19255;SDS011;9762;52.490;13.410;2022-11-20T11:04:52;14.93;;;12.37;;
19255;SDS011;9762;52.490;13.410;2022-11-20T11:07:26;16.87;;;12.40;;
19255;SDS011;9762;52.490;13.410;2022-11-20T11:09:56;14.27;;;12.77;;
19255;SDS011;9762;52.490;13.410;2022-11-20T11:12:23;15.30;;;13.30;;
19255;SDS011;9762;52.490;13.410;2022-11-20T11:14:51;14.30;;;11.97;;
19255;SDS011;9762;52.490;13.410;2022-11-20T11:27:56;14.87;;;12.57;;
19255;SDS011;9762;52.490;13.410;2022-11-20T11:30:24;14.73;;;12.57;;
19255;SDS011;9762;52.490;13.410;2022-11-20T11:33:01;14.13;;;11.53;;
19255;SDS011;9762;52.490;13.410;2022-11-20T11:35:46;14.07;;;11.47;;
19255;SDS011;9762;52.490;13.410;2022-11-20T11:41:06;12.10;;;10.60;;
19255;SDS011;9762;52.490;13.410;2022-11-20T11:43:36;32.70;;;23.37;;
19255;SDS011;9762;52.490;13.410;2022-11-20T11:46:24;19.97;;;15.63;;
19255;SDS011;9762;52.490;13.410;2022-11-20T11:49:11;15.43;;;12.47;;
19255;SDS011;9762;52.490;13.410;2022-11-20T11:52:01;13.10;;;10.90;;
19255;SDS011;9762;52.490;13.410;2022-11-20T11:54:43;13.80;;;11.90;;
19255;SDS011;9762;52.490;13.410;2022-11-20T11:57:17;13.40;;;11.77;;
19255;SDS011;9762;52.490;13.410;2022-11-20T12:00:16;15.50;;;12.73;;
19255;SDS011;9762;52.490;13.410;2022-11-20T12:16:11;12.17;;;10.97;;
19255;SDS011;9762;52.490;13.410;2022-11-20T12:18:39;13.93;;;11.93;;
19255;SDS011;9762;52.490;13.410;2022-11-20T12:35:26;12.83;;;10.23;;
19255;SDS011;9762;52.490;13.410;2022-11-20T12:43:57;13.33;;;10.57;;
19255;SDS011;9762;52.490;13.410;2022-11-20T12:52:33;10.00;;;7.70;;
19255;SDS011;9762;52.490;13.410;2022-11-20T12:57:51;8.50;;;7.17;;
19255;SDS011;9762;52.490;13.410;2022-11-20T13:00:18;7.70;;;6.93;;
19255;SDS011;9762;52.490;13.410;2022-11-20T13:08:52;9.80;;;8.57;;
19255;SDS011;9762;52.490;13.410;2022-11-20T13:11:41;8.80;;;7.33;;
19255;SDS011;9762;52.490;13.410;2022-11-20T13:17:07;14.67;;;12.17;;
19255;SDS011;9762;52.490;13.410;2022-11-20T13:19:38;12.30;;;10.60;;
19255;SDS011;9762;52.490;13.410;2022-11-20T13:22:04;24.10;;;15.77;;
19255;SDS011;9762;52.490;13.410;2022-11-20T13:24:30;14.57;;;10.30;;
19255;SDS011;9762;52.490;13.410;2022-11-20T13:29:37;30.17;;;20.07;;
19255;SDS011;9762;52.490;13.410;2022-11-20T13:32:25;23.33;;;16.40;;
19255;SDS011;9762;52.490;13.410;2022-11-20T13:34:58;11.67;;;9.90;;
19255;SDS011;9762;52.490;13.410;2022-11-20T13:37:32;10.87;;;8.67;;
19255;SDS011;9762;52.490;13.410;2022-11-20T13:42:35;8.93;;;8.03;;
19255;SDS011;9762;52.490;13.410;2022-11-20T13:45:08;14.73;;;10.30;;
19255;SDS011;9762;52.490;13.410;2022-11-20T13:47:48;13.97;;;9.50;;
19255;SDS011;9762;52.490;13.410;2022-11-20T13:50:17;13.67;;;10.73;;
19255;SDS011;9762;52.490;13.410;2022-11-20T13:52:54;18.20;;;14.00;;
19255;SDS011;9762;52.490;13.410;2022-11-20T14:11:02;11.50;;;8.87;;
19255;SDS011;9762;52.490;13.410;2022-11-20T14:16:52;11.80;;;9.30;;
19255;SDS011;9762;52.490;13.410;2022-11-20T14:19:29;8.57;;;7.77;;
19255;SDS011;9762;52.490;13.410;2022-11-20T14:24:47;7.87;;;7.10;;
19255;SDS011;9762;52.490;13.410;2022-11-20T14:27:14;8.67;;;7.57;;
19255;SDS011;9762;52.490;13.410;2022-11-20T14:29:43;7.80;;;6.97;;
19255;SDS011;9762;52.490;13.410;2022-11-20T14:32:10;8.23;;;7.43;;
19255;SDS011;9762;52.490;13.410;2022-11-20T14:34:40;9.77;;;8.07;;
19255;SDS011;9762;52.490;13.410;2022-11-20T14:37:12;8.83;;;7.87;;
19255;SDS011;9762;52.490;13.410;2022-11-20T14:39:46;8.97;;;7.53;;
19255;SDS011;9762;52.490;13.410;2022-11-20T14:42:24;9.83;;;8.63;;
19255;SDS011;9762;52.490;13.410;2022-11-20T14:44:52;13.80;;;10.97;;
19255;SDS011;9762;52.490;13.410;2022-11-20T14:47:21;9.27;;;7.83;;
19255;SDS011;9762;52.490;13.410;2022-11-20T14:49:49;22.50;;;14.00;;
19255;SDS011;9762;52.490;13.410;2022-11-20T14:52:17;19.57;;;14.50;;
19255;SDS011;9762;52.490;13.410;2022-11-20T14:54:48;14.87;;;11.03;;
19255;SDS011;9762;52.490;13.410;2022-11-20T14:57:53;13.70;;;12.20;;
19255;SDS011;9762;52.490;13.410;2022-11-20T15:00:27;11.03;;;9.83;;
19255;SDS011;9762;52.490;13.410;2022-11-20T15:02:53;11.90;;;9.93;;
19255;SDS011;9762;52.490;13.410;2022-11-20T15:05:20;12.73;;;9.00;;
19255;SDS011;9762;52.490;13.410;2022-11-20T15:07:49;9.20;;;8.30;;
19255;SDS011;9762;52.490;13.410;2022-11-20T15:10:24;9.07;;;8.03;;
19255;SDS011;9762;52.490;13.410;2022-11-20T15:12:51;7.50;;;6.77;;
19255;SDS011;9762;52.490;13.410;2022-11-20T15:15:24;8.90;;;8.00;;
19255;SDS011;9762;52.490;13.410;2022-11-20T15:17:55;8.70;;;7.90;;
19255;SDS011;9762;52.490;13.410;2022-11-20T15:20:22;9.20;;;8.30;;
19255;SDS011;9762;52.490;13.410;2022-11-20T15:22:52;9.80;;;7.80;;
19255;SDS011;9762;52.490;13.410;2022-11-20T15:25:17;21.33;;;15.67;;
19255;SDS011;9762;52.490;13.410;2022-11-20T15:27:43;46.47;;;29.17;;
19255;SDS011;9762;52.490;13.410;2022-11-20T15:30:17;45.57;;;30.97;;
19255;SDS011;9762;52.490;13.410;2022-11-20T15:32:44;57.00;;;38.53;;
19255;SDS011;9762;52.490;13.410;2022-11-20T15:35:11;14.93;;;12.70;;
19255;SDS011;9762;52.490;13.410;2022-11-20T15:37:37;10.97;;;9.80;;
19255;SDS011;9762;52.490;13.410;2022-11-20T15:40:04;15.40;;;11.23;;
19255;SDS011;9762;52.490;13.410;2022-11-20T15:42:31;18.77;;;13.83;;
19255;SDS011;9762;52.490;13.410;2022-11-20T15:44:57;19.03;;;14.87;;
19255;SDS011;9762;52.490;13.410;2022-11-20T15:47:25;28.07;;;19.67;;
19255;SDS011;9762;52.490;13.410;2022-11-20T15:49:54;20.07;;;14.67;;
19255;SDS011;9762;52.490;13.410;2022-11-20T15:52:20;14.73;;;10.03;;
19255;SDS011;9762;52.490;13.410;2022-11-20T15:54:46;12.63;;;11.07;;
19255;SDS011;9762;52.490;13.410;2022-11-20T15:57:12;15.87;;;12.93;;
19255;SDS011;9762;52.490;13.410;2022-11-20T15:59:38;20.67;;;16.73;;
19255;SDS011;9762;52.490;13.410;2022-11-20T16:02:10;11.90;;;9.97;;
19255;SDS011;9762;52.490;13.410;2022-11-20T16:04:36;14.80;;;13.30;;
19255;SDS011;9762;52.490;13.410;2022-11-20T16:07:01;19.80;;;16.67;;
19255;SDS011;9762;52.490;13.410;2022-11-20T16:09:27;17.13;;;13.27;;
19255;SDS011;9762;52.490;13.410;2022-11-20T16:11:53;12.00;;;10.67;;
19255;SDS011;9762;52.490;13.410;2022-11-20T16:14:19;12.40;;;10.07;;
19255;SDS011;9762;52.490;13.410;2022-11-20T16:17:03;10.90;;;9.80;;
19255;SDS011;9762;52.490;13.410;2022-11-20T16:19:29;10.33;;;9.30;;
19255;SDS011;9762;52.490;13.410;2022-11-20T16:21:56;9.37;;;8.43;;
19255;SDS011;9762;52.490;13.410;2022-11-20T16:24:22;10.83;;;8.60;;
19255;SDS011;9762;52.490;13.410;2022-11-20T16:26:48;9.97;;;8.27;;
19255;SDS011;9762;52.490;13.410;2022-11-20T16:29:13;8.33;;;7.40;;
19255;SDS011;9762;52.490;13.410;2022-11-20T16:31:39;9.47;;;8.17;;
19255;SDS011;9762;52.490;13.410;2022-11-20T16:34:06;8.07;;;7.37;;
19255;SDS011;9762;52.490;13.410;2022-11-20T16:36:32;8.33;;;7.57;;
19255;SDS011;9762;52.490;13.410;2022-11-20T16:38:59;12.77;;;9.97;;
19255;SDS011;9762;52.490;13.410;2022-11-20T16:41:26;16.17;;;11.00;;
19255;SDS011;9762;52.490;13.410;2022-11-20T16:43:55;12.20;;;9.63;;
19255;SDS011;9762;52.490;13.410;2022-11-20T16:46:22;9.70;;;7.87;;